createdAt,value
2019-04-10T00:02:23.736Z,92.00
2019-04-10T00:07:10.580Z,92.60
2019-04-10T00:11:27.020Z,92.10
2019-04-10T00:15:59.121Z,93.00
2019-04-10T00:20:51.133Z,93.00
2019-04-10T00:25:24.434Z,92.00
2019-04-10T00:29:58.989Z,92.80
2019-04-10T00:34:31.818Z,92.00
2019-04-10T00:39:08.967Z,92.30
2019-04-10T00:43:43.514Z,92.30
2019-04-10T00:48:15.511Z,92.50
2019-04-10T00:52:46.687Z,92.30
2019-04-10T00:57:19.236Z,92.50
2019-04-10T01:01:50.711Z,92.60
2019-04-10T01:06:24.095Z,93.20
2019-04-10T01:10:57.499Z,92.50
2019-04-10T01:15:28.743Z,93.00
2019-04-10T01:20:00.650Z,93.20
2019-04-10T01:24:35.532Z,92.80
2019-04-10T01:29:09.266Z,93.20
2019-04-10T01:38:09.201Z,93.70
2019-04-10T01:42:44.415Z,93.80
2019-04-10T01:51:48.386Z,94.80
2019-04-10T01:56:27.052Z,94.60
2019-04-10T02:01:08.360Z,95.10
2019-04-10T02:05:40.812Z,95.10
2019-04-10T02:10:12.502Z,95.20
2019-04-10T02:14:44.777Z,96.10
2019-04-10T02:19:16.401Z,96.10
2019-04-10T02:23:52.326Z,96.20
2019-04-10T02:28:24.340Z,96.00
2019-04-10T02:32:57.919Z,95.50
2019-04-10T02:37:33.157Z,96.30
2019-04-10T02:42:11.219Z,95.70
2019-04-10T02:46:45.131Z,96.80
2019-04-10T02:51:17.508Z,96.00
2019-04-10T02:55:53.510Z,96.50
2019-04-10T03:00:26.661Z,96.10
2019-04-10T03:04:59.421Z,96.00
2019-04-10T03:09:44.480Z,96.00
2019-04-10T03:14:26.244Z,96.10
2019-04-10T03:18:59.298Z,96.10
2019-04-10T03:23:31.610Z,95.90
2019-04-10T03:28:05.089Z,96.50
2019-04-10T03:33:02.566Z,96.20
2019-04-10T03:37:32.010Z,96.70
2019-04-10T03:42:04.394Z,96.80
2019-04-10T03:46:38.726Z,96.40
2019-04-10T03:51:12.274Z,96.60
2019-04-10T03:56:05.371Z,96.70
2019-04-10T04:00:40.741Z,96.90
2019-04-10T04:05:12.714Z,96.90
2019-04-10T04:10:06.452Z,97.10
2019-04-10T04:14:39.072Z,97.10
2019-04-10T04:19:11.365Z,97.10
2019-04-10T04:23:44.539Z,97.00
2019-04-10T04:28:16.822Z,96.60
2019-04-10T04:32:51.524Z,96.60
2019-04-10T04:37:24.065Z,96.50
2019-04-10T04:41:56.379Z,96.60
2019-04-10T04:46:28.174Z,95.70
2019-04-10T04:51:01.270Z,95.90
2019-04-10T04:55:33.163Z,94.90
2019-04-10T05:00:06.113Z,95.40
2019-04-10T05:04:39.825Z,95.10
2019-04-10T05:09:17.045Z,94.60
2019-04-10T05:13:49.000Z,94.60
2019-04-10T05:18:23.152Z,94.50
2019-04-10T05:22:54.805Z,93.70
2019-04-10T05:27:27.847Z,94.30
2019-04-10T05:31:59.553Z,94.00
2019-04-10T05:36:33.445Z,93.10
2019-04-10T05:41:25.876Z,94.20
2019-04-10T05:45:55.918Z,94.10
2019-04-10T05:50:28.531Z,93.80
2019-04-10T05:59:38.383Z,93.50
2019-04-10T06:04:11.606Z,92.10
2019-04-10T06:08:44.055Z,93.10
2019-04-10T06:13:15.517Z,92.70
2019-04-10T06:17:48.928Z,92.80
2019-04-10T06:26:56.089Z,92.30
2019-04-10T06:31:30.398Z,92.40
2019-04-10T06:36:04.969Z,92.10
2019-04-10T06:40:35.838Z,92.10
2019-04-10T06:45:11.460Z,91.10
2019-04-10T06:49:45.662Z,91.20
2019-04-10T06:54:16.454Z,91.60
2019-04-10T06:58:49.879Z,91.30
2019-04-10T07:03:45.726Z,91.20
2019-04-10T07:08:26.019Z,91.40
2019-04-10T07:13:05.166Z,90.30
2019-04-10T07:17:39.471Z,89.70
2019-04-10T07:22:12.497Z,87.80
2019-04-10T07:26:46.318Z,86.30
2019-04-10T07:31:19.388Z,85.30
2019-04-10T07:35:54.898Z,86.40
2019-04-10T07:41:11.171Z,84.00
2019-04-10T07:45:39.416Z,84.70
2019-04-10T07:50:12.245Z,83.50
2019-04-10T07:54:45.072Z,83.30
2019-04-10T07:59:16.355Z,83.50
2019-04-10T08:03:52.902Z,83.70
2019-04-10T08:08:26.305Z,83.90
2019-04-10T08:13:00.204Z,82.00
2019-04-10T08:17:33.222Z,81.40
2019-04-10T08:22:24.660Z,80.20
2019-04-10T08:26:57.041Z,81.50
2019-04-10T08:31:32.875Z,80.10
2019-04-10T08:36:07.333Z,78.00
2019-04-10T08:40:40.707Z,78.30
2019-04-10T08:45:13.245Z,76.60
2019-04-10T08:49:47.341Z,75.30
2019-04-10T08:54:20.428Z,74.60
2019-04-10T08:58:53.336Z,75.70
2019-04-10T09:03:26.513Z,74.40
2019-04-10T09:08:00.334Z,75.80
2019-04-10T09:12:33.705Z,72.70
2019-04-10T09:17:25.112Z,73.90
2019-04-10T09:21:55.640Z,73.20
2019-04-10T09:26:28.770Z,74.00
2019-04-10T09:31:00.407Z,72.70
2019-04-10T09:35:33.454Z,73.30
2019-04-10T09:40:26.324Z,74.10
2019-04-10T09:45:00.348Z,74.50
2019-04-10T09:49:41.533Z,72.50
2019-04-10T09:54:09.809Z,71.50
2019-04-10T10:03:13.099Z,71.80
2019-04-10T10:07:45.191Z,66.70
2019-04-10T10:12:18.287Z,68.50
2019-04-10T10:16:52.625Z,68.50
2019-04-10T10:21:46.497Z,68.20
2019-04-10T10:26:19.816Z,68.20
2019-04-10T10:30:52.890Z,69.50
2019-04-10T10:35:25.646Z,69.50
2019-04-10T10:39:59.381Z,68.20
2019-04-10T10:44:32.825Z,67.80
2019-04-10T10:49:04.234Z,64.60
2019-04-10T10:53:36.464Z,64.80
2019-04-10T10:58:11.323Z,67.90
2019-04-10T11:02:43.965Z,66.60
2019-04-10T11:07:16.603Z,65.10
2019-04-10T11:11:49.385Z,65.20
2019-04-10T11:16:23.354Z,63.60
2019-04-10T11:21:00.625Z,61.90
2019-04-10T11:25:28.658Z,62.30
2019-04-10T11:30:05.174Z,60.90
2019-04-10T11:34:35.919Z,59.00
2019-04-10T11:39:17.109Z,59.10
2019-04-10T11:43:46.199Z,60.20
2019-04-10T11:52:56.145Z,62.40
2019-04-10T11:57:30.792Z,60.20
2019-04-10T12:02:06.639Z,59.80
2019-04-10T12:06:40.401Z,59.80
2019-04-10T12:11:15.975Z,59.00
2019-04-10T12:15:50.377Z,58.30
2019-04-10T12:20:23.574Z,57.50
2019-04-10T12:24:56.836Z,58.80
2019-04-10T12:29:31.536Z,57.00
2019-04-10T12:34:04.548Z,56.60
2019-04-10T12:38:36.060Z,55.60
2019-04-10T12:43:16.538Z,54.90
2019-04-10T12:47:50.179Z,54.70
2019-04-10T12:56:54.661Z,54.00
2019-04-10T13:01:28.986Z,54.50
2019-04-10T13:06:03.519Z,55.00
2019-04-10T13:10:35.797Z,54.60
2019-04-10T13:15:08.389Z,53.90
2019-04-10T13:24:13.262Z,54.40
2019-04-10T13:28:44.523Z,52.80
2019-04-10T13:33:20.643Z,53.40
2019-04-10T13:37:54.825Z,52.20
2019-04-10T13:42:30.206Z,52.30
2019-04-10T13:47:04.993Z,52.00
2019-04-10T13:51:37.355Z,51.50
2019-04-10T13:56:12.832Z,52.20
2019-04-10T14:00:47.114Z,51.60
2019-04-10T14:05:24.024Z,53.50
2019-04-10T14:09:54.370Z,54.60
2019-04-10T14:14:26.698Z,54.80
2019-04-10T14:18:59.517Z,55.60
2019-04-10T14:23:35.922Z,57.00
2019-04-10T14:28:09.019Z,57.10
2019-04-10T14:32:45.210Z,59.30
2019-04-10T14:37:19.369Z,59.30
2019-04-10T14:41:51.805Z,62.20
2019-04-10T14:46:26.249Z,61.90
2019-04-10T14:50:59.885Z,62.80
2019-04-10T14:55:35.584Z,63.30
2019-04-10T15:00:08.531Z,64.40
2019-04-10T15:04:41.404Z,65.20
2019-04-10T15:09:34.668Z,66.20
2019-04-10T15:14:07.953Z,67.90
2019-04-10T15:18:43.842Z,67.20
2019-04-10T15:23:15.395Z,68.90
2019-04-10T15:27:47.985Z,67.70
2019-04-10T15:32:20.607Z,68.80
2019-04-10T15:36:56.386Z,69.80
2019-04-10T15:41:28.564Z,70.60
2019-04-10T15:46:00.608Z,71.10
2019-04-10T15:50:32.601Z,70.30
2019-04-10T15:55:07.778Z,72.40
2019-04-10T15:59:36.575Z,71.50
2019-04-10T16:04:12.275Z,72.10
2019-04-10T16:08:44.810Z,73.20
2019-04-10T16:13:28.191Z,73.20
2019-04-10T16:18:09.320Z,72.30
2019-04-10T16:22:45.284Z,71.70
2019-04-10T16:27:20.178Z,73.50
2019-04-10T16:31:54.540Z,74.20
2019-04-10T16:36:26.551Z,73.90
2019-04-10T16:41:00.455Z,74.50
2019-04-10T16:45:32.818Z,75.00
2019-04-10T16:50:25.826Z,76.20
2019-04-10T16:54:59.705Z,77.10
2019-04-10T16:59:32.071Z,77.40
2019-04-10T17:04:05.358Z,77.70
2019-04-10T17:08:38.863Z,79.30
2019-04-10T17:13:12.107Z,78.60
2019-04-10T17:17:44.450Z,79.10
2019-04-10T17:22:43.908Z,79.10
2019-04-10T17:27:13.387Z,79.50
2019-04-10T17:31:46.961Z,81.30
2019-04-10T17:36:19.380Z,81.80
2019-04-10T17:41:02.381Z,83.00
2019-04-10T17:45:34.356Z,83.60
2019-04-10T17:50:08.715Z,83.50
2019-04-10T17:54:40.080Z,84.30
2019-04-10T17:59:12.270Z,84.60
2019-04-10T18:03:51.796Z,83.50
2019-04-10T18:08:17.062Z,85.50
2019-04-10T18:12:52.324Z,84.60
2019-04-10T18:17:26.903Z,85.20
2019-04-10T18:22:00.857Z,85.60
2019-04-10T18:26:33.953Z,85.70
2019-04-10T18:31:05.293Z,86.00
2019-04-10T18:35:35.611Z,85.50
2019-04-10T18:40:08.823Z,85.60
2019-04-10T18:44:41.545Z,86.30
2019-04-10T18:49:15.640Z,86.70
2019-04-10T18:53:51.965Z,87.20
2019-04-10T18:58:29.732Z,87.30
2019-04-10T19:03:19.790Z,88.40
2019-04-10T19:07:51.818Z,87.90
2019-04-10T19:12:24.384Z,89.00
2019-04-10T19:17:00.402Z,88.00
2019-04-10T19:21:33.506Z,90.00
2019-04-10T19:26:08.492Z,89.40
2019-04-10T19:30:46.200Z,89.30
2019-04-10T19:39:54.322Z,88.80
2019-04-10T19:44:26.852Z,89.80
2019-04-10T19:49:00.067Z,89.40
2019-04-10T19:53:31.911Z,89.50
2019-04-10T19:58:03.994Z,89.60
2019-04-10T20:02:37.206Z,89.00
2019-04-10T20:07:09.093Z,88.50
2019-04-10T20:11:48.718Z,88.80
2019-04-10T20:16:20.634Z,89.30
2019-04-10T20:20:53.284Z,89.00
2019-04-10T20:25:46.336Z,89.90
2019-04-10T20:30:21.045Z,90.20
2019-04-10T20:34:53.895Z,89.90
2019-04-10T20:39:27.421Z,90.10
2019-04-10T20:44:01.581Z,90.30
2019-04-10T20:48:32.866Z,90.40
2019-04-10T20:53:04.187Z,90.80
2019-04-10T20:57:37.498Z,90.60
2019-04-10T21:02:09.684Z,90.60
2019-04-10T21:06:46.051Z,91.00
2019-04-10T21:11:25.055Z,90.80
2019-04-10T21:15:56.357Z,91.10
2019-04-10T21:20:27.153Z,91.30
2019-04-10T21:25:00.608Z,91.30
2019-04-10T21:29:51.036Z,91.70
2019-04-10T21:34:28.664Z,91.50
2019-04-10T21:39:01.021Z,92.30
2019-04-10T21:43:33.099Z,92.50
2019-04-10T21:48:04.717Z,90.60
2019-04-10T21:52:36.455Z,92.50
2019-04-10T21:57:09.708Z,92.80
2019-04-10T22:01:44.763Z,93.30
2019-04-10T22:06:39.464Z,93.50
2019-04-10T22:11:12.796Z,93.60
2019-04-10T22:15:47.008Z,93.80
2019-04-10T22:20:21.380Z,94.10
2019-04-10T22:24:54.687Z,94.60
2019-04-10T22:29:28.263Z,94.90
2019-04-10T22:34:00.874Z,94.60
2019-04-10T22:38:34.151Z,94.70
2019-04-10T22:43:26.223Z,95.10
2019-04-10T22:48:00.724Z,94.80
2019-04-10T22:52:32.753Z,94.70
2019-04-10T22:57:06.913Z,94.80
2019-04-10T23:01:40.801Z,95.20
2019-04-10T23:06:13.279Z,95.50
2019-04-10T23:11:05.676Z,95.10
2019-04-10T23:15:39.904Z,95.00
2019-04-10T23:20:11.155Z,95.00
2019-04-10T23:24:45.553Z,95.00
2019-04-10T23:29:16.485Z,95.00
2019-04-10T23:33:50.261Z,95.00
2019-04-10T23:38:25.658Z,95.50
2019-04-10T23:43:07.823Z,95.70
2019-04-10T23:47:48.720Z,95.40
2019-04-10T23:52:21.124Z,95.80
2019-04-10T23:56:55.315Z,96.60
